Time;durP1;ratioP1;P1;durP2;ratioP2;P2;SDS_P1;SDS_P2;PMS_P1;PMS_P2;Temp;Humidity;BMP_temperature;BMP_pressure;BME280_temperature;BME280_humidity;BME280_pressure;Samples;Min_cycle;Max_cycle;Signal;HPM_P1;HPM_P2
2021/08/25 00:01:54;;;;;;;6.93;5.03;;;28.00;92.20;;;;;;6230838;23;20188;-94
2021/08/25 00:04:27;;;;;;;7.87;4.77;;;28.10;92.60;;;;;;6232263;23;20180;-93
2021/08/25 00:06:59;;;;;;;6.73;4.93;;;28.10;91.50;;;;;;6229660;23;20168;-94
2021/08/25 00:15:44;;;;;;;7.90;5.60;;;27.90;90.80;;;;;;6235424;23;20164;-91
2021/08/25 00:18:21;;;;;;;7.17;5.57;;;27.90;90.40;;;;;;6228184;23;20536;-93
2021/08/25 00:20:52;;;;;;;6.67;5.27;;;27.90;91.10;;;;;;6219710;23;20754;-93
2021/08/25 00:23:23;;;;;;;7.67;5.37;;;27.70;87.30;;;;;;6220370;23;20176;-93
2021/08/25 00:26:19;;;;;;;11.63;6.03;;;27.90;89.50;;;;;;6234033;23;20173;-93
2021/08/25 00:28:55;;;;;;;9.03;5.50;;;27.80;91.00;;;;;;6212590;23;20168;-92
2021/08/25 00:31:31;;;;;;;9.40;5.90;;;27.90;91.00;;;;;;6221555;23;20196;-91
2021/08/25 00:34:04;;;;;;;7.00;5.80;;;27.80;90.70;;;;;;6236601;23;20211;-93
2021/08/25 00:36:35;;;;;;;9.10;6.30;;;27.60;91.10;;;;;;6221106;23;20215;-92
2021/08/25 00:39:06;;;;;;;6.77;5.80;;;27.50;91.40;;;;;;6221504;23;20212;-92
2021/08/25 00:41:39;;;;;;;9.10;5.93;;;27.40;91.90;;;;;;6220031;23;20199;-93
2021/08/25 00:44:13;;;;;;;8.43;5.77;;;27.40;91.90;;;;;;6221729;23;20506;-92
2021/08/25 00:46:45;;;;;;;9.87;6.13;;;27.50;91.50;;;;;;6222623;23;20169;-92
2021/08/25 00:49:18;;;;;;;6.97;5.63;;;27.50;91.90;;;;;;6231931;23;20184;-92
2021/08/25 00:51:50;;;;;;;9.60;6.10;;;27.40;90.90;;;;;;6221695;23;20176;-92
2021/08/25 00:54:23;;;;;;;8.87;6.07;;;27.40;89.70;;;;;;6221399;23;20179;-93
2021/08/25 00:56:57;;;;;;;6.83;5.90;;;27.10;90.50;;;;;;6230729;23;20176;-94
2021/08/25 00:59:28;;;;;;;8.27;5.43;;;27.00;90.80;;;;;;6242271;23;20199;-93
2021/08/25 01:02:09;;;;;;;8.67;5.63;;;26.90;90.10;;;;;;6240774;23;20168;-93
2021/08/25 01:04:46;;;;;;;6.20;5.00;;;26.80;90.30;;;;;;6238957;23;20172;-92
2021/08/25 01:07:20;;;;;;;7.37;5.23;;;26.70;90.90;;;;;;6228972;23;20176;-92
2021/08/25 01:10:23;;;;;;;6.73;5.37;;;26.80;91.30;;;;;;6213093;23;20183;-91
2021/08/25 01:13:05;;;;;;;5.90;4.13;;;27.00;91.30;;;;;;6237150;23;20191;-92
2021/08/25 01:15:38;;;;;;;7.23;4.80;;;27.20;91.90;;;;;;6242074;23;20164;-91
2021/08/25 01:20:41;;;;;;;6.27;4.60;;;27.30;91.40;;;;;;6258211;22;20208;-91
2021/08/25 01:23:15;;;;;;;7.10;5.00;;;27.30;92.50;;;;;;6232847;23;20558;-91
2021/08/25 01:25:50;;;;;;;7.13;4.47;;;27.10;93.10;;;;;;6230106;23;20187;-92
2021/08/25 01:28:31;;;;;;;6.47;4.63;;;27.20;93.80;;;;;;6233830;23;20175;-92
2021/08/25 01:31:04;;;;;;;7.20;4.63;;;27.20;93.60;;;;;;6219740;23;20200;-92
2021/08/25 01:33:36;;;;;;;7.03;5.60;;;26.70;94.70;;;;;;6220116;23;20168;-92
2021/08/25 01:36:13;;;;;;;7.00;4.83;;;26.40;95.10;;;;;;6221538;23;20179;-92
2021/08/25 01:38:52;;;;;;;6.90;5.13;;;25.70;96.30;;;;;;6234408;23;20204;-92
2021/08/25 01:41:24;;;;;;;8.27;4.97;;;25.50;96.60;;;;;;6218434;23;20176;-92
2021/08/25 01:43:58;;;;;;;7.97;5.17;;;25.30;96.40;;;;;;6232817;23;20227;-91
2021/08/25 01:46:35;;;;;;;6.80;5.10;;;25.00;97.40;;;;;;6233756;23;20226;-92
2021/08/25 01:49:09;;;;;;;7.50;5.50;;;24.80;97.80;;;;;;6231329;23;20223;-92
2021/08/25 01:51:43;;;;;;;10.63;5.53;;;24.70;98.30;;;;;;6227618;23;20614;-92
2021/08/25 01:54:14;;;;;;;7.40;5.23;;;24.60;97.70;;;;;;6231972;23;20176;-92
2021/08/25 01:56:45;;;;;;;9.77;5.10;;;24.50;97.70;;;;;;6231020;23;20160;-92
2021/08/25 01:59:20;;;;;;;8.20;5.67;;;24.30;98.00;;;;;;6231848;23;20176;-92
2021/08/25 02:01:53;;;;;;;8.10;5.80;;;24.20;98.20;;;;;;6235972;23;20168;-90
2021/08/25 02:04:33;;;;;;;8.93;5.40;;;24.10;98.70;;;;;;6233870;23;20169;-92
2021/08/25 02:07:05;;;;;;;8.17;5.30;;;23.90;98.80;;;;;;6223436;23;20183;-92
2021/08/25 02:09:47;;;;;;;7.93;5.50;;;23.80;98.60;;;;;;6229372;23;20262;-92
2021/08/25 02:12:23;;;;;;;9.00;6.80;;;23.70;98.80;;;;;;6219408;23;20698;-92
2021/08/25 02:14:54;;;;;;;8.57;7.10;;;23.60;99.60;;;;;;6221207;23;20176;-92
2021/08/25 02:17:32;;;;;;;7.43;6.57;;;23.50;99.40;;;;;;6228731;23;20196;-92
2021/08/25 02:20:04;;;;;;;6.97;5.70;;;23.30;99.00;;;;;;6232035;23;20180;-92
2021/08/25 02:22:37;;;;;;;8.17;6.53;;;23.20;99.20;;;;;;6262267;23;20175;-91
2021/08/25 02:25:09;;;;;;;8.27;6.83;;;23.20;99.60;;;;;;6263280;23;20176;-92
2021/08/25 02:27:41;;;;;;;8.80;6.60;;;23.00;99.90;;;;;;6234278;23;20183;-93
2021/08/25 02:30:14;;;;;;;10.70;6.60;;;22.90;99.70;;;;;;6261504;23;20168;-94
2021/08/25 02:32:48;;;;;;;8.13;6.47;;;22.80;99.90;;;;;;6259571;23;20168;-92
2021/08/25 02:35:30;;;;;;;9.50;6.90;;;22.70;99.90;;;;;;6259885;23;20182;-92
2021/08/25 02:38:02;;;;;;;10.20;6.33;;;22.60;99.90;;;;;;6263033;23;20203;-91
2021/08/25 02:40:33;;;;;;;10.33;6.67;;;22.50;99.90;;;;;;6258235;23;21097;-92
2021/08/25 02:43:05;;;;;;;11.30;6.07;;;22.30;99.90;;;;;;6233729;23;20175;-92
2021/08/25 02:45:38;;;;;;;11.07;6.40;;;22.20;99.90;;;;;;6238839;23;20164;-92
2021/08/25 02:48:48;;;;;;;16.70;6.93;;;22.10;99.90;;;;;;6241935;23;20172;-92
2021/08/25 02:51:20;;;;;;;8.70;6.77;;;22.00;99.90;;;;;;6266167;22;20241;-92
2021/08/25 02:53:51;;;;;;;9.23;5.90;;;21.90;99.90;;;;;;6264675;23;20623;-93
2021/08/25 02:56:23;;;;;;;7.73;6.07;;;21.80;99.90;;;;;;6265486;23;20168;-92
2021/08/25 02:58:55;;;;;;;9.07;6.83;;;21.70;99.90;;;;;;6266008;23;20257;-92
2021/08/25 03:07:03;;;;;;;9.93;6.60;;;21.30;99.90;;;;;;6238216;22;20286;-92
2021/08/25 03:09:36;;;;;;;12.37;7.80;;;21.10;99.90;;;;;;6244390;23;20199;-93
2021/08/25 03:14:50;;;;;;;10.77;7.37;;;20.80;99.90;;;;;;6334049;22;20197;-93
2021/08/25 03:17:21;;;;;;;10.23;6.60;;;20.70;99.90;;;;;;6336580;22;20185;-92
2021/08/25 03:19:53;;;;;;;10.23;7.63;;;20.50;99.90;;;;;;6335695;22;20170;-92
2021/08/25 03:22:30;;;;;;;9.03;7.13;;;20.50;99.90;;;;;;6333582;22;20186;-92
2021/08/25 03:25:08;;;;;;;9.17;7.10;;;20.40;99.90;;;;;;6311066;22;20186;-92
2021/08/25 03:27:40;;;;;;;9.77;6.83;;;20.30;99.90;;;;;;6336393;22;20170;-92
2021/08/25 03:35:23;;;;;;;10.83;7.10;;;19.90;99.90;;;;;;6330184;22;20239;-91
2021/08/25 03:38:03;;;;;;;9.73;7.07;;;19.80;99.90;;;;;;6334347;22;20214;-91
2021/08/25 03:43:21;;;;;;;11.50;7.53;;;19.60;99.90;;;;;;6332334;22;20162;-91
2021/08/25 03:45:53;;;;;;;12.07;7.30;;;19.50;99.90;;;;;;6330218;22;20174;-91
2021/08/25 03:48:25;;;;;;;9.63;7.70;;;19.40;99.90;;;;;;6304217;22;20185;-91
2021/08/25 03:50:56;;;;;;;10.93;7.20;;;19.40;99.90;;;;;;6325858;22;20181;-90
2021/08/25 03:53:31;;;;;;;11.27;6.80;;;19.30;99.90;;;;;;6327169;22;20575;-91
2021/08/25 03:56:02;;;;;;;11.07;7.43;;;19.30;99.90;;;;;;6300269;22;20249;-91
2021/08/25 03:58:33;;;;;;;11.30;7.17;;;19.20;99.90;;;;;;6324480;22;20206;-92
2021/08/25 04:01:05;;;;;;;13.40;6.73;;;19.10;99.90;;;;;;6325615;22;20175;-92
2021/08/25 04:03:38;;;;;;;11.23;7.03;;;19.10;99.90;;;;;;6326900;22;20186;-91
2021/08/25 04:06:18;;;;;;;8.67;6.73;;;19.10;99.90;;;;;;6300463;22;20477;-92
2021/08/25 04:09:20;;;;;;;9.30;6.90;;;18.90;99.90;;;;;;6301464;22;20174;-91
2021/08/25 04:11:56;;;;;;;12.73;7.70;;;18.90;99.90;;;;;;6324665;22;20178;-92
2021/08/25 04:14:28;;;;;;;8.77;6.70;;;18.90;99.90;;;;;;6326680;22;20181;-91
2021/08/25 04:17:02;;;;;;;10.83;6.80;;;18.80;99.90;;;;;;6301105;22;20174;-92
2021/08/25 04:19:41;;;;;;;8.60;6.20;;;18.70;99.90;;;;;;6327306;22;20194;-92
2021/08/25 04:22:14;;;;;;;9.87;7.17;;;18.70;99.90;;;;;;6325198;22;20204;-91
2021/08/25 04:24:46;;;;;;;9.00;6.57;;;18.60;99.90;;;;;;6326990;22;20167;-91
2021/08/25 04:27:30;;;;;;;10.63;6.77;;;18.60;99.90;;;;;;6329953;22;20201;-92
2021/08/25 04:30:05;;;;;;;7.93;6.80;;;18.50;99.90;;;;;;6303672;22;20174;-92
2021/08/25 04:32:37;;;;;;;9.70;6.53;;;18.40;99.90;;;;;;6321879;22;20174;-91
2021/08/25 04:35:09;;;;;;;9.37;6.43;;;18.40;99.90;;;;;;6324968;22;20193;-93
2021/08/25 04:37:41;;;;;;;8.80;6.40;;;18.40;99.90;;;;;;6299124;22;20220;-93
2021/08/25 04:40:12;;;;;;;9.10;6.50;;;18.30;99.90;;;;;;6325081;22;20277;-92
2021/08/25 04:42:46;;;;;;;10.13;6.63;;;18.30;99.90;;;;;;6285898;22;20167;-91
2021/08/25 04:45:17;;;;;;;10.13;6.53;;;18.30;99.90;;;;;;6312001;22;20174;-91
2021/08/25 04:47:58;;;;;;;8.17;6.20;;;18.30;99.90;;;;;;6311750;22;20171;-92
2021/08/25 04:50:29;;;;;;;9.33;6.37;;;18.20;99.90;;;;;;6312902;22;20185;-92
2021/08/25 04:53:03;;;;;;;8.03;6.57;;;18.20;99.90;;;;;;6312100;22;20167;-92
2021/08/25 04:55:35;;;;;;;9.03;6.10;;;18.10;99.90;;;;;;6312733;22;20194;-91
2021/08/25 04:58:10;;;;;;;10.00;6.33;;;18.10;99.90;;;;;;6322019;22;20198;-92
2021/08/25 05:00:45;;;;;;;10.97;6.90;;;18.00;99.90;;;;;;6319554;22;20173;-92
2021/08/25 05:03:18;;;;;;;8.20;6.23;;;18.00;99.90;;;;;;6314177;22;20174;-92
2021/08/25 05:05:49;;;;;;;9.17;6.43;;;17.90;99.90;;;;;;6314314;22;20635;-92
2021/08/25 05:08:21;;;;;;;10.97;6.50;;;17.80;99.90;;;;;;6319573;22;20504;-93
2021/08/25 05:13:54;;;;;;;7.40;5.80;;;17.70;99.90;;;;;;6322258;22;20171;-92
2021/08/25 05:16:26;;;;;;;9.33;6.27;;;17.70;99.90;;;;;;6313774;22;20169;-93
2021/08/25 05:18:57;;;;;;;7.37;5.60;;;17.50;99.90;;;;;;6311195;22;20251;-90
2021/08/25 05:21:29;;;;;;;10.27;5.93;;;17.50;99.90;;;;;;6284030;22;20192;-90
2021/08/25 05:24:01;;;;;;;16.23;6.53;;;17.50;99.90;;;;;;6312602;22;20472;-90
2021/08/25 05:26:32;;;;;;;7.70;5.90;;;17.50;99.90;;;;;;6286135;22;20191;-92
2021/08/25 05:29:05;;;;;;;7.13;5.37;;;17.40;99.90;;;;;;6312216;22;20178;-93
2021/08/25 05:31:37;;;;;;;8.17;6.13;;;17.40;99.90;;;;;;6310805;22;20181;-93
2021/08/25 05:34:11;;;;;;;10.03;5.90;;;17.30;99.90;;;;;;6312144;22;20527;-90
2021/08/25 05:36:43;;;;;;;10.37;6.10;;;17.30;99.90;;;;;;6311663;22;20608;-90
2021/08/25 05:39:16;;;;;;;7.83;5.70;;;17.20;99.90;;;;;;6286560;22;20652;-89
2021/08/25 05:41:48;;;;;;;7.43;5.30;;;17.20;99.90;;;;;;6316649;22;20163;-90
2021/08/25 05:44:21;;;;;;;8.27;5.63;;;17.30;99.90;;;;;;6330332;22;20208;-91
2021/08/25 05:49:28;;;;;;;8.73;5.90;;;17.10;99.90;;;;;;6243633;22;20275;-92
2021/08/25 05:52:01;;;;;;;7.77;5.47;;;17.10;99.90;;;;;;6234669;23;20231;-91
2021/08/25 05:54:32;;;;;;;8.53;5.77;;;17.00;99.90;;;;;;6224651;23;20196;-91
2021/08/25 05:57:03;;;;;;;6.57;5.20;;;17.00;99.90;;;;;;6220522;23;20237;-90
2021/08/25 05:59:36;;;;;;;6.83;5.63;;;16.90;99.90;;;;;;6218592;23;20223;-91
2021/08/25 06:02:08;;;;;;;6.80;5.37;;;16.90;99.90;;;;;;6218378;23;20191;-91
2021/08/25 06:04:39;;;;;;;7.70;5.30;;;16.90;99.90;;;;;;6217724;23;20177;-91
2021/08/25 06:07:11;;;;;;;9.87;5.40;;;16.80;99.90;;;;;;6219199;23;20169;-91
2021/08/25 06:09:41;;;;;;;6.93;5.33;;;16.70;99.90;;;;;;6219313;23;20222;-91
2021/08/25 06:12:14;;;;;;;6.70;5.30;;;16.70;99.90;;;;;;6218690;23;20512;-91
2021/08/25 06:14:47;;;;;;;6.73;5.27;;;16.70;99.90;;;;;;6220394;23;20188;-91
2021/08/25 06:17:19;;;;;;;11.07;5.77;;;16.70;99.90;;;;;;6220077;23;20207;-91
2021/08/25 06:19:51;;;;;;;10.53;5.40;;;16.60;99.90;;;;;;6218397;23;20235;-90
2021/08/25 06:22:23;;;;;;;8.50;5.70;;;16.50;99.90;;;;;;6216724;23;20169;-91
2021/08/25 06:24:54;;;;;;;8.53;5.10;;;16.50;99.90;;;;;;6220983;23;20180;-91
2021/08/25 06:27:25;;;;;;;7.50;5.47;;;16.40;99.90;;;;;;6220212;23;20202;-90
2021/08/25 06:29:59;;;;;;;9.77;5.97;;;16.40;99.90;;;;;;6218955;23;20202;-90
2021/08/25 06:32:31;;;;;;;7.57;5.40;;;16.40;99.90;;;;;;6218952;23;20693;-90
2021/08/25 06:35:02;;;;;;;7.57;5.13;;;16.30;99.90;;;;;;6219759;23;20176;-91
2021/08/25 06:37:34;;;;;;;7.53;5.40;;;16.20;99.90;;;;;;6221368;23;20251;-91
2021/08/25 06:40:05;;;;;;;5.67;5.00;;;16.20;99.90;;;;;;6222249;23;20192;-90
2021/08/25 06:42:36;;;;;;;9.93;5.57;;;16.20;99.90;;;;;;6222141;23;20189;-90
2021/08/25 06:45:12;;;;;;;7.00;5.40;;;16.20;99.90;;;;;;6223342;23;20180;-91
2021/08/25 06:47:43;;;;;;;8.00;5.60;;;16.20;99.90;;;;;;6226154;23;20221;-91
2021/08/25 06:50:15;;;;;;;9.77;5.40;;;16.20;99.90;;;;;;6252036;23;20207;-91
2021/08/25 06:52:47;;;;;;;11.23;5.70;;;16.10;99.90;;;;;;6254421;23;20183;-91
2021/08/25 06:55:18;;;;;;;6.23;5.40;;;16.10;99.90;;;;;;6273969;22;20156;-91
2021/08/25 06:57:49;;;;;;;10.40;5.50;;;16.10;99.90;;;;;;6273337;22;20160;-90
2021/08/25 07:00:23;;;;;;;6.60;5.40;;;16.10;99.90;;;;;;6268062;23;20199;-91
2021/08/25 07:02:58;;;;;;;9.60;5.23;;;16.10;99.90;;;;;;6258904;23;20179;-92
2021/08/25 07:05:31;;;;;;;6.93;5.30;;;16.00;99.90;;;;;;6239685;23;20168;-90
2021/08/25 07:08:02;;;;;;;7.83;5.33;;;16.00;99.90;;;;;;6272834;23;20179;-92
2021/08/25 07:10:35;;;;;;;8.20;5.17;;;15.90;99.90;;;;;;6260607;23;20172;-92
2021/08/25 07:13:06;;;;;;;8.67;5.43;;;16.00;99.90;;;;;;6236117;23;20198;-91
2021/08/25 07:15:39;;;;;;;10.17;5.30;;;16.00;99.90;;;;;;6260742;23;20168;-91
2021/08/25 07:18:10;;;;;;;8.47;6.40;;;15.90;99.90;;;;;;6254632;23;20538;-91
2021/08/25 07:20:47;;;;;;;9.03;5.50;;;15.80;99.90;;;;;;6252272;23;20207;-91
2021/08/25 07:23:21;;;;;;;7.13;5.37;;;15.80;99.90;;;;;;6256501;23;20175;-91
2021/08/25 07:25:52;;;;;;;6.43;4.67;;;15.80;99.90;;;;;;6257884;23;20159;-91
2021/08/25 07:28:23;;;;;;;7.67;4.73;;;15.70;99.90;;;;;;6252546;23;20180;-91
2021/08/25 07:30:57;;;;;;;9.37;5.00;;;15.70;99.90;;;;;;6210382;23;20190;-90
2021/08/25 07:33:29;;;;;;;6.80;5.03;;;15.60;99.90;;;;;;6261398;23;20191;-91
2021/08/25 07:36:00;;;;;;;8.57;5.23;;;15.60;99.90;;;;;;6255597;23;20168;-91
2021/08/25 07:38:31;;;;;;;6.77;5.17;;;15.50;99.90;;;;;;6251212;23;20175;-91
2021/08/25 07:41:02;;;;;;;8.00;5.00;;;15.50;99.90;;;;;;6250756;23;20263;-90
2021/08/25 07:43:34;;;;;;;6.50;4.53;;;15.50;99.90;;;;;;6255059;23;20176;-91
2021/08/25 07:46:07;;;;;;;8.60;5.20;;;15.50;99.90;;;;;;6250975;23;20164;-91
2021/08/25 07:48:39;;;;;;;7.80;5.00;;;15.50;99.90;;;;;;6251233;23;20190;-90
2021/08/25 07:51:11;;;;;;;6.97;4.77;;;15.40;99.90;;;;;;6263185;23;20152;-91
2021/08/25 07:53:42;;;;;;;8.43;5.30;;;15.40;99.90;;;;;;6252048;23;20215;-91
2021/08/25 07:56:13;;;;;;;7.53;5.60;;;15.40;99.90;;;;;;6229276;23;20184;-91
2021/08/25 07:58:45;;;;;;;6.33;5.10;;;15.30;99.90;;;;;;6252674;23;20168;-91
2021/08/25 08:01:19;;;;;;;10.83;5.30;;;15.30;99.90;;;;;;6254679;23;20187;-90
2021/08/25 08:03:51;;;;;;;6.40;5.00;;;15.20;99.90;;;;;;6272835;23;20185;-92
2021/08/25 08:06:22;;;;;;;8.77;4.90;;;15.20;99.90;;;;;;6273054;23;20260;-91
2021/08/25 08:08:53;;;;;;;7.80;5.23;;;15.10;99.90;;;;;;6237625;23;20183;-91
2021/08/25 08:11:25;;;;;;;8.40;5.37;;;15.10;99.90;;;;;;6252868;23;20583;-91
2021/08/25 08:13:56;;;;;;;7.87;4.93;;;15.10;99.90;;;;;;6256509;23;20238;-91
2021/08/25 08:16:32;;;;;;;8.20;4.90;;;15.10;99.90;;;;;;6254864;23;20179;-91
2021/08/25 08:19:05;;;;;;;6.73;4.97;;;15.10;99.90;;;;;;6254472;23;20246;-91
2021/08/25 08:21:36;;;;;;;8.87;4.53;;;15.10;99.90;;;;;;6253727;23;20210;-91
2021/08/25 08:24:08;;;;;;;7.80;4.70;;;15.10;99.90;;;;;;6255078;23;20171;-91
2021/08/25 08:26:40;;;;;;;8.23;5.13;;;15.10;99.90;;;;;;6254832;23;20176;-91
2021/08/25 08:29:11;;;;;;;6.43;4.60;;;15.10;99.90;;;;;;6256415;23;20180;-91
2021/08/25 08:31:45;;;;;;;7.60;5.07;;;15.00;99.90;;;;;;6267389;23;20166;-91
2021/08/25 08:34:16;;;;;;;7.40;5.10;;;15.00;99.90;;;;;;6247739;23;20155;-90
2021/08/25 08:36:48;;;;;;;6.50;4.80;;;14.90;99.90;;;;;;6273091;22;20156;-91
2021/08/25 08:39:19;;;;;;;8.17;4.97;;;14.90;99.90;;;;;;6272907;22;20206;-91
2021/08/25 08:41:50;;;;;;;7.00;4.87;;;14.80;99.90;;;;;;6266036;23;20253;-91
2021/08/25 08:44:29;;;;;;;7.80;4.93;;;14.80;99.90;;;;;;6265080;23;20182;-91
2021/08/25 08:47:03;;;;;;;7.37;4.60;;;14.80;99.90;;;;;;6263520;23;20180;-91
2021/08/25 08:49:34;;;;;;;6.30;4.90;;;14.80;99.90;;;;;;6253922;23;20470;-91
2021/08/25 08:52:06;;;;;;;6.43;4.80;;;14.70;99.90;;;;;;6253551;23;20507;-91
2021/08/25 08:54:39;;;;;;;6.20;4.50;;;14.70;99.90;;;;;;6228586;23;20172;-91
2021/08/25 08:57:11;;;;;;;7.00;4.67;;;14.70;99.90;;;;;;6255093;23;20175;-91
2021/08/25 08:59:43;;;;;;;7.73;5.00;;;14.70;99.90;;;;;;6257299;23;20176;-91
2021/08/25 09:02:46;;;;;;;7.67;4.33;;;14.60;99.90;;;;;;6231071;23;20187;-92
2021/08/25 09:05:21;;;;;;;7.70;4.60;;;14.60;99.90;;;;;;6253391;23;20221;-92
2021/08/25 09:07:54;;;;;;;6.97;4.70;;;14.60;99.90;;;;;;6254049;23;20168;-91
2021/08/25 09:10:28;;;;;;;7.60;4.83;;;14.50;99.90;;;;;;6253390;23;20167;-92
2021/08/25 09:13:01;;;;;;;5.97;4.50;;;14.50;99.90;;;;;;6227059;23;20171;-90
2021/08/25 09:15:33;;;;;;;5.83;4.33;;;14.50;99.90;;;;;;6251369;23;20231;-92
2021/08/25 09:18:07;;;;;;;5.80;4.57;;;14.50;99.90;;;;;;6250773;23;20228;-92
2021/08/25 09:20:44;;;;;;;5.10;4.00;;;14.50;99.90;;;;;;6249323;23;20198;-91
2021/08/25 09:23:18;;;;;;;7.73;4.90;;;14.40;99.90;;;;;;6250590;23;20202;-91
2021/08/25 09:25:50;;;;;;;6.60;5.10;;;14.40;99.90;;;;;;6250187;23;20175;-91
2021/08/25 09:28:28;;;;;;;6.63;5.03;;;14.30;99.90;;;;;;6250477;23;20695;-92
2021/08/25 09:31:03;;;;;;;7.77;4.90;;;14.30;99.90;;;;;;6249418;23;20202;-92
2021/08/25 09:33:38;;;;;;;6.80;4.60;;;14.30;99.90;;;;;;6251211;23;20561;-92
2021/08/25 09:36:11;;;;;;;6.70;4.83;;;14.30;99.90;;;;;;6250877;23;20171;-91
2021/08/25 09:38:52;;;;;;;7.00;4.83;;;14.20;99.90;;;;;;6253478;23;20168;-92
2021/08/25 09:41:23;;;;;;;6.00;4.53;;;14.20;99.90;;;;;;6251428;23;20227;-91
2021/08/25 09:43:55;;;;;;;6.07;4.47;;;14.10;99.90;;;;;;6252522;23;20175;-91
2021/08/25 09:46:27;;;;;;;8.53;4.60;;;14.10;99.90;;;;;;6253120;23;20175;-91
2021/08/25 09:49:01;;;;;;;9.57;5.37;;;14.00;99.90;;;;;;6228251;23;20245;-91
2021/08/25 09:51:40;;;;;;;6.83;4.87;;;14.00;99.90;;;;;;6251555;23;20215;-92
2021/08/25 09:54:14;;;;;;;7.40;4.70;;;14.00;99.90;;;;;;6227098;23;20168;-92
2021/08/25 09:56:46;;;;;;;8.37;4.80;;;13.90;99.90;;;;;;6251713;23;20195;-91
2021/08/25 09:59:20;;;;;;;6.93;4.60;;;13.90;99.90;;;;;;6252862;23;20199;-91
2021/08/25 10:01:54;;;;;;;6.87;5.27;;;13.90;99.90;;;;;;6251651;23;20203;-92
2021/08/25 10:04:34;;;;;;;6.87;4.90;;;13.90;99.90;;;;;;6258238;23;20700;-91
2021/08/25 10:07:05;;;;;;;7.60;5.33;;;13.80;99.90;;;;;;6262706;23;20186;-92
2021/08/25 10:09:37;;;;;;;5.20;4.60;;;13.80;99.90;;;;;;6236361;23;20544;-91
2021/08/25 10:12:09;;;;;;;6.53;4.50;;;13.80;99.90;;;;;;6259802;23;20179;-91
2021/08/25 10:14:44;;;;;;;6.37;4.60;;;13.80;99.90;;;;;;6252432;23;20217;-92
2021/08/25 10:17:41;;;;;;;7.27;4.37;;;13.80;99.90;;;;;;6227499;23;20175;-91
2021/08/25 10:20:39;;;;;;;7.00;4.83;;;13.80;99.90;;;;;;6254013;23;20179;-91
2021/08/25 10:23:10;;;;;;;6.87;4.93;;;13.70;99.90;;;;;;6242522;23;20218;-91
2021/08/25 10:26:10;;;;;;;7.83;4.47;;;13.70;99.90;;;;;;6246970;23;20172;-92
2021/08/25 10:29:10;;;;;;;8.67;5.10;;;13.60;99.90;;;;;;6259473;23;20172;-91
2021/08/25 10:32:15;;;;;;;8.57;5.07;;;13.60;99.90;;;;;;6247126;23;20182;-90
2021/08/25 10:35:08;;;;;;;6.50;4.80;;;13.50;99.90;;;;;;6252943;23;20210;-89
2021/08/25 10:37:41;;;;;;;6.27;4.73;;;13.50;99.90;;;;;;6232537;23;20185;-91
2021/08/25 10:40:14;;;;;;;6.60;4.60;;;13.50;99.90;;;;;;6251098;23;20176;-91
2021/08/25 10:42:50;;;;;;;6.53;4.57;;;13.50;99.90;;;;;;6249300;23;20199;-91
2021/08/25 10:48:52;;;;;;;6.53;4.57;;;13.40;99.90;;;;;;6247688;23;20373;-92
2021/08/25 10:51:41;;;;;;;5.20;4.43;;;13.40;99.90;;;;;;6248746;23;20191;-91
2021/08/25 10:54:20;;;;;;;5.57;4.70;;;13.40;99.90;;;;;;6252134;23;20180;-92
2021/08/25 10:57:08;;;;;;;7.80;4.80;;;13.30;99.90;;;;;;6266803;22;20175;-92
2021/08/25 10:59:40;;;;;;;6.47;4.73;;;13.30;99.90;;;;;;6252874;23;20172;-92
2021/08/25 11:02:11;;;;;;;6.23;4.70;;;13.30;99.90;;;;;;6248565;23;20291;-92
2021/08/25 11:04:43;;;;;;;9.13;4.57;;;13.20;99.90;;;;;;6250258;23;20194;-91
2021/08/25 11:07:14;;;;;;;7.93;5.40;;;13.20;99.90;;;;;;6249125;23;20207;-92
2021/08/25 11:09:48;;;;;;;6.57;4.70;;;13.20;99.90;;;;;;6249152;23;20627;-91
2021/08/25 11:12:20;;;;;;;6.73;5.20;;;13.10;99.90;;;;;;6248793;23;20644;-91
2021/08/25 11:14:52;;;;;;;8.80;5.27;;;13.10;99.90;;;;;;6248980;23;20186;-91
2021/08/25 11:17:25;;;;;;;6.20;4.73;;;13.10;99.90;;;;;;6249346;23;20195;-91
2021/08/25 11:19:58;;;;;;;7.60;5.33;;;13.10;99.90;;;;;;6250394;23;20172;-91
2021/08/25 11:22:31;;;;;;;9.67;4.90;;;13.10;99.90;;;;;;6250053;23;20218;-91
2021/08/25 11:25:12;;;;;;;7.57;5.10;;;13.20;99.90;;;;;;6253765;23;20198;-91
2021/08/25 11:27:47;;;;;;;9.43;5.23;;;13.10;99.90;;;;;;6252235;23;20618;-91
2021/08/25 11:30:20;;;;;;;7.40;4.93;;;13.10;99.90;;;;;;6224282;23;20188;-92
2021/08/25 11:32:57;;;;;;;9.40;5.07;;;13.10;99.90;;;;;;6252315;23;20281;-91
2021/08/25 11:35:30;;;;;;;7.73;4.83;;;13.10;99.90;;;;;;6251312;23;20634;-91
2021/08/25 11:38:06;;;;;;;8.20;5.43;;;13.10;99.90;;;;;;6250490;23;20171;-91
2021/08/25 11:40:42;;;;;;;8.50;5.30;;;13.10;99.90;;;;;;6256516;23;20191;-91
2021/08/25 11:43:15;;;;;;;6.10;4.90;;;13.10;99.90;;;;;;6257280;23;20203;-91
2021/08/25 11:45:51;;;;;;;6.60;4.73;;;13.00;99.90;;;;;;6251432;23;20165;-91
2021/08/25 11:48:27;;;;;;;7.50;4.63;;;13.00;99.90;;;;;;6251171;23;20183;-91
2021/08/25 11:51:00;;;;;;;7.73;5.23;;;13.10;99.90;;;;;;6250995;23;20195;-91
2021/08/25 11:53:35;;;;;;;7.97;4.87;;;13.00;99.90;;;;;;6251496;23;20241;-91
2021/08/25 11:56:08;;;;;;;6.70;5.10;;;13.00;99.90;;;;;;6251188;23;20179;-91
2021/08/25 11:58:41;;;;;;;6.53;4.70;;;13.00;99.90;;;;;;6251414;23;20175;-92
2021/08/25 12:01:23;;;;;;;6.60;4.73;;;13.00;99.90;;;;;;6250669;23;20196;-91
2021/08/25 12:03:57;;;;;;;5.30;4.53;;;12.90;99.90;;;;;;6225672;23;20650;-91
2021/08/25 12:06:47;;;;;;;9.70;4.90;;;12.90;99.90;;;;;;6252021;23;20242;-91
2021/08/25 12:09:31;;;;;;;8.50;4.87;;;12.80;99.90;;;;;;6229161;23;20172;-91
2021/08/25 12:12:07;;;;;;;6.00;4.73;;;12.80;99.90;;;;;;6251143;23;20229;-92
2021/08/25 12:14:57;;;;;;;6.57;4.90;;;12.80;99.90;;;;;;6261187;23;20194;-91
2021/08/25 12:17:28;;;;;;;7.17;5.17;;;12.70;99.90;;;;;;6271716;22;20236;-91
2021/08/25 12:20:03;;;;;;;7.57;5.30;;;12.70;99.90;;;;;;6271482;23;20168;-91
2021/08/25 12:22:34;;;;;;;7.87;4.77;;;12.70;99.90;;;;;;6269893;22;20191;-92
2021/08/25 12:25:06;;;;;;;9.50;5.50;;;12.70;99.90;;;;;;6271728;22;20250;-89
2021/08/25 12:27:48;;;;;;;7.00;4.60;;;12.70;99.90;;;;;;6271160;22;20168;-90
2021/08/25 12:30:37;;;;;;;7.10;4.90;;;12.60;99.90;;;;;;6272697;22;20188;-92
2021/08/25 12:33:12;;;;;;;6.97;4.97;;;12.60;99.90;;;;;;6272159;22;20202;-93
2021/08/25 12:35:44;;;;;;;9.13;5.30;;;12.60;99.90;;;;;;6248273;22;20156;-91
2021/08/25 12:38:15;;;;;;;6.70;4.63;;;12.60;99.90;;;;;;6272229;23;20241;-91
2021/08/25 12:40:47;;;;;;;8.37;5.03;;;12.50;99.90;;;;;;6272304;22;20203;-91
2021/08/25 12:43:21;;;;;;;8.00;4.57;;;12.50;99.90;;;;;;6272013;23;20238;-91
2021/08/25 12:45:52;;;;;;;8.50;5.13;;;12.50;99.90;;;;;;6272574;23;20176;-91
2021/08/25 12:48:23;;;;;;;9.00;4.73;;;12.50;99.90;;;;;;6270520;23;20184;-91
2021/08/25 12:50:55;;;;;;;8.67;5.00;;;12.50;99.90;;;;;;6242833;23;20691;-91
2021/08/25 12:53:26;;;;;;;5.77;4.60;;;12.40;99.90;;;;;;6267983;23;20172;-92
2021/08/25 12:55:57;;;;;;;7.83;5.20;;;12.50;99.90;;;;;;6266530;23;20176;-91
2021/08/25 12:58:31;;;;;;;6.17;4.17;;;12.40;99.90;;;;;;6240009;23;20168;-91
2021/08/25 13:01:02;;;;;;;7.17;5.00;;;12.40;99.90;;;;;;6254524;23;20176;-91
2021/08/25 13:03:34;;;;;;;7.20;4.77;;;12.40;99.90;;;;;;6258933;23;20223;-93
2021/08/25 13:06:05;;;;;;;8.47;5.00;;;12.40;99.90;;;;;;6265316;23;20178;-91
2021/08/25 13:08:37;;;;;;;11.47;4.93;;;12.40;99.90;;;;;;6259152;23;20171;-91
2021/08/25 13:11:08;;;;;;;5.83;5.00;;;12.30;99.90;;;;;;6262032;23;20212;-91
2021/08/25 13:13:42;;;;;;;5.93;4.63;;;12.30;99.90;;;;;;6265382;23;20198;-91
2021/08/25 13:16:16;;;;;;;7.53;5.23;;;12.30;99.90;;;;;;6267830;22;20179;-92
2021/08/25 13:18:49;;;;;;;7.80;4.83;;;12.20;99.90;;;;;;6263028;23;20190;-91
2021/08/25 13:21:20;;;;;;;6.00;4.77;;;12.30;99.90;;;;;;6257160;23;20195;-91
2021/08/25 13:23:52;;;;;;;8.10;5.30;;;12.30;99.90;;;;;;6253485;23;20210;-91
2021/08/25 13:26:23;;;;;;;5.77;4.80;;;12.30;99.90;;;;;;6255062;23;20172;-92
2021/08/25 13:28:56;;;;;;;8.47;5.13;;;12.30;99.90;;;;;;6258844;23;20179;-92
2021/08/25 13:31:28;;;;;;;6.63;5.40;;;12.10;99.90;;;;;;6268918;23;20191;-92
2021/08/25 13:33:59;;;;;;;6.77;5.63;;;12.10;99.90;;;;;;6262050;22;20202;-91
2021/08/25 13:36:31;;;;;;;8.87;4.90;;;12.20;99.90;;;;;;6233197;23;20178;-92
2021/08/25 13:39:02;;;;;;;6.90;4.93;;;12.20;99.90;;;;;;6256266;23;20191;-91
2021/08/25 13:41:33;;;;;;;9.17;5.20;;;12.20;99.90;;;;;;6253524;23;20167;-91
2021/08/25 13:44:07;;;;;;;7.97;4.70;;;12.20;99.90;;;;;;6228974;23;20199;-92
2021/08/25 13:46:39;;;;;;;9.23;5.43;;;12.20;99.90;;;;;;6254621;23;20266;-91
2021/08/25 13:49:10;;;;;;;8.20;5.57;;;12.20;99.90;;;;;;6255985;23;20191;-92
2021/08/25 13:51:41;;;;;;;10.77;5.00;;;12.20;99.90;;;;;;6227879;23;20217;-92
2021/08/25 13:54:14;;;;;;;9.47;5.27;;;12.20;99.90;;;;;;6255735;23;20239;-91
2021/08/25 13:56:46;;;;;;;6.50;5.03;;;12.20;99.90;;;;;;6271506;22;20183;-92